Time;durP1;ratioP1;P1;durP2;ratioP2;P2;SDS_P1;SDS_P2;PMS_P1;PMS_P2;Temp;Humidity;BMP_temperature;BMP_pressure;BME280_temperature;BME280_humidity;BME280_pressure;Samples;Min_cycle;Max_cycle;Signal;HPM_P1;HPM_P2
2022/11/13 00:00:54;;;;;;;0.70;0.70;;;;;;;10.55;52.58;98776.19;6248866;23;20020;-94
2022/11/13 00:03:39;;;;;;;3.92;0.70;;;;;;;10.32;52.19;98775.59;6245296;23;20031;-92
2022/11/13 00:06:23;;;;;;;1.02;0.70;;;;;;;10.55;52.57;98792.59;6246583;23;20023;-83
2022/11/13 00:09:11;;;;;;;0.98;0.77;;;;;;;10.51;52.72;98797.09;6246488;23;20043;-84
2022/11/13 00:11:59;;;;;;;1.80;0.95;;;;;;;10.53;52.88;98792.94;6244852;23;20020;-85
2022/11/13 00:14:44;;;;;;;10.68;1.02;;;;;;;10.37;52.24;98759.06;6250972;23;20040;-85
2022/11/13 00:17:29;;;;;;;1.63;0.70;;;;;;;10.31;52.46;98736.56;6246078;22;20012;-94
2022/11/13 00:20:13;;;;;;;3.33;0.80;;;;;;;10.52;52.47;98776.84;6244044;23;20019;-92
2022/11/13 00:22:58;;;;;;;3.15;0.68;;;;;;;10.51;52.27;98789.72;6245494;23;20028;-85
2022/11/13 00:25:43;;;;;;;2.15;0.73;;;;;;;10.57;51.98;98799.34;6245135;23;20026;-93
2022/11/13 00:28:27;;;;;;;3.10;0.80;;;;;;;10.34;52.72;98773.34;6245703;23;20012;-84
2022/11/13 00:31:13;;;;;;;1.35;0.77;;;;;;;10.45;51.60;98801.13;6223071;23;20008;-90
2022/11/13 00:33:59;;;;;;;2.42;1.17;;;;;;;10.23;52.05;98786.53;6243819;23;20046;-84
2022/11/13 00:36:43;;;;;;;1.50;0.60;;;;;;;10.22;51.46;98779.44;6244111;23;20027;-89
2022/11/13 00:39:28;;;;;;;2.70;0.75;;;;;;;9.99;51.75;98754.25;6244802;23;20012;-92
2022/11/13 00:42:13;;;;;;;2.85;0.77;;;;;;;10.17;51.31;98776.88;6222658;23;20024;-84
2022/11/13 00:44:57;;;;;;;2.45;0.63;;;;;;;10.16;51.56;98790.84;6245570;23;20020;-85
2022/11/13 00:47:41;;;;;;;2.80;0.70;;;;;;;9.77;51.48;98727.94;6222029;23;20066;-88
2022/11/13 00:50:27;;;;;;;1.08;0.70;;;;;;;10.24;52.02;98809.19;6244262;23;20079;-86
2022/11/13 00:53:12;;;;;;;4.47;0.73;;;;;;;10.07;52.65;98775.28;6222230;23;20077;-87
2022/11/13 00:58:46;;;;;;;9.02;0.80;;;;;;;9.88;52.39;98725.69;6243606;23;20023;-85
2022/11/13 01:01:31;;;;;;;3.15;0.90;;;;;;;10.01;52.28;98776.56;6197638;23;20043;-88
2022/11/13 01:04:15;;;;;;;5.30;0.80;;;;;;;9.84;52.64;98760.22;6197016;23;20458;-91
2022/11/13 01:07:00;;;;;;;3.53;1.13;;;;;;;10.10;53.53;98810.16;6245283;23;20043;-89
2022/11/13 01:09:49;;;;;;;5.18;1.30;;;;;;;10.06;52.74;98800.19;6196892;23;20100;-91
2022/11/13 01:12:34;;;;;;;4.82;1.00;;;;;;;9.88;52.67;98764.69;6222403;23;20027;-90
2022/11/13 01:15:18;;;;;;;2.35;0.88;;;;;;;10.02;52.85;98804.69;6218437;23;20074;-89
2022/11/13 01:18:03;;;;;;;2.17;0.65;;;;;;;9.88;52.97;98783.00;6218333;23;20019;-92
2022/11/13 01:20:48;;;;;;;2.58;0.80;;;;;;;10.14;52.63;98795.84;6245314;23;20019;-86
2022/11/13 01:23:33;;;;;;;0.60;0.60;;;;;;;9.96;52.21;98801.31;6196734;23;20020;-86
2022/11/13 01:26:28;;;;;;;9.68;1.63;;;;;;;10.29;52.53;98837.16;6219039;23;20534;-86
2022/11/13 01:29:13;;;;;;;1.50;0.70;;;;;;;10.07;52.30;98810.78;6245492;23;20055;-85
2022/11/13 01:31:57;;;;;;;1.50;0.70;;;;;;;10.21;52.30;98827.00;6222915;23;20023;-85
2022/11/13 01:34:42;;;;;;;4.43;0.80;;;;;;;9.67;52.33;98788.31;6222916;23;20047;-87
2022/11/13 01:37:26;;;;;;;2.20;0.82;;;;;;;9.92;52.21;98775.78;6226302;23;20572;-87
2022/11/13 01:40:13;;;;;;;3.20;0.80;;;;;;;9.95;52.61;98788.78;6197326;23;20023;-86
2022/11/13 01:42:57;;;;;;;2.35;0.65;;;;;;;9.91;52.11;98785.09;6196923;23;20382;-89
2022/11/13 01:45:58;;;;;;;4.43;0.80;;;;;;;10.15;52.26;98822.03;6218414;23;20020;-85
2022/11/13 01:48:51;;;;;;;3.67;0.90;;;;;;;10.17;52.70;98826.06;6218321;23;20022;-85
2022/11/13 01:51:38;;;;;;;0.70;0.70;;;;;;;9.89;52.11;98773.69;6218080;23;20024;-85
2022/11/13 01:54:41;;;;;;;;;;;;;;;10.00;52.24;98831.50;6217909;23;20012;-91
2022/11/13 01:57:26;;;;;;;16.33;1.10;;;;;;;9.67;52.52;98752.81;6220087;23;19922;-87
2022/11/13 02:00:11;;;;;;;4.97;0.70;;;;;;;9.61;52.94;98765.03;6246783;23;20016;-85
2022/11/13 02:05:40;;;;;;;2.78;0.80;;;;;;;9.72;52.68;98779.16;6246943;23;20016;-89
2022/11/13 02:08:25;;;;;;;2.88;0.90;;;;;;;9.59;53.09;98764.53;6198952;23;20027;-85
2022/11/13 02:11:10;;;;;;;3.35;0.70;;;;;;;9.82;53.30;98822.50;6198738;23;20016;-85
2022/11/13 02:13:55;;;;;;;1.67;0.80;;;;;;;9.61;53.95;98756.84;6246132;23;20450;-88
2022/11/13 02:16:42;;;;;;;3.80;0.95;;;;;;;9.68;55.42;98784.44;6224280;23;20012;-87
2022/11/13 02:19:33;;;;;;;3.65;0.60;;;;;;;9.79;54.93;98798.56;6247018;23;20458;-87
2022/11/13 02:22:45;;;;;;;1.63;0.80;;;;;;;9.96;55.67;98805.97;6224231;23;20042;-92
2022/11/13 02:25:31;;;;;;;2.03;0.77;;;;;;;9.80;55.88;98786.53;6220003;23;20453;-91
2022/11/13 02:28:19;;;;;;;;;;;;;;;9.92;55.95;98805.81;6199276;23;20408;-90
2022/11/13 02:31:11;;;;;;;1.08;0.63;;;;;;;9.53;55.45;98754.88;6219991;23;19922;-90
2022/11/13 02:33:56;;;;;;;3.92;0.90;;;;;;;9.40;55.36;98743.81;6219380;23;20099;-90
2022/11/13 02:36:41;;;;;;;2.05;0.75;;;;;;;9.87;55.61;98800.53;6198833;23;20023;-91
2022/11/13 02:39:25;;;;;;;2.13;0.90;;;;;;;9.52;55.84;98754.09;6198077;23;20018;-89
2022/11/13 02:42:10;;;;;;;2.83;0.90;;;;;;;9.68;55.60;98792.63;6223459;23;20054;-89
2022/11/13 02:44:54;;;;;;;6.07;0.85;;;;;;;9.56;56.34;98771.41;6198238;23;20016;-85
2022/11/13 02:50:26;;;;;;;2.38;0.88;;;;;;;9.61;57.44;98773.19;6254892;23;20047;-83
2022/11/13 02:53:11;;;;;;;2.78;0.93;;;;;;;9.09;56.95;98707.66;6223769;23;20020;-88
2022/11/13 02:55:55;;;;;;;1.95;0.88;;;;;;;9.17;56.88;98717.75;6197806;23;20070;-87
2022/11/13 02:58:40;;;;;;;2.72;0.77;;;;;;;9.17;58.27;98750.47;6220236;23;20074;-91
2022/11/13 03:01:25;;;;;;;1.88;0.77;;;;;;;9.16;58.51;98754.34;6246126;23;20358;-86
2022/11/13 03:04:09;;;;;;;2.00;1.00;;;;;;;9.03;57.51;98715.19;6220014;23;20050;-85
2022/11/13 03:06:54;;;;;;;2.30;0.80;;;;;;;9.24;58.86;98759.03;6219171;23;20020;-92
2022/11/13 03:09:39;;;;;;;0.73;0.60;;;;;;;9.05;58.44;98732.03;6246706;23;20020;-88
2022/11/13 03:12:24;;;;;;;1.17;0.70;;;;;;;9.15;58.54;98764.44;6198318;23;20023;-91
2022/11/13 03:15:09;;;;;;;6.03;0.80;;;;;;;9.07;57.70;98737.97;6223970;23;20488;-86
2022/11/13 03:17:54;;;;;;;3.00;1.00;;;;;;;9.03;57.42;98730.72;6223950;23;20020;-91
2022/11/13 03:20:41;;;;;;;1.25;0.70;;;;;;;8.95;58.17;98702.34;6224337;23;20024;-88
2022/11/13 03:23:27;;;;;;;2.90;0.70;;;;;;;8.99;57.43;98719.66;6224027;23;20340;-89
2022/11/13 03:26:14;;;;;;;3.97;0.90;;;;;;;8.99;57.97;98722.38;6198738;23;20016;-84
2022/11/13 03:28:59;;;;;;;1.70;1.30;;;;;;;9.34;57.84;98780.56;6219923;23;20039;-86
2022/11/13 03:31:43;;;;;;;2.13;0.90;;;;;;;9.25;56.43;98779.72;6218760;23;20106;-86
2022/11/13 03:34:29;;;;;;;2.03;0.80;;;;;;;9.36;56.37;98774.75;6224062;23;20537;-83
2022/11/13 03:37:13;;;;;;;2.13;0.90;;;;;;;9.14;55.77;98741.03;6219255;23;20446;-83
2022/11/13 03:39:58;;;;;;;1.25;0.90;;;;;;;9.29;55.90;98768.97;6219381;23;20027;-88
2022/11/13 03:45:29;;;;;;;3.42;0.90;;;;;;;9.10;58.06;98761.84;6219990;23;20044;-86
2022/11/13 03:48:15;;;;;;;4.97;1.52;;;;;;;9.11;59.56;98774.41;6223532;23;20027;-90
2022/11/13 03:51:00;;;;;;;1.02;0.75;;;;;;;9.01;58.72;98773.88;6223830;23;20016;-86
2022/11/13 03:53:45;;;;;;;2.15;0.88;;;;;;;8.85;57.77;98752.50;6198681;23;20016;-86
2022/11/13 03:56:29;;;;;;;2.88;1.20;;;;;;;8.87;57.58;98757.63;6245900;23;20150;-85
2022/11/13 03:59:14;;;;;;;4.50;1.02;;;;;;;8.85;57.85;98748.97;6224681;23;20023;-89
2022/11/13 04:01:58;;;;;;;3.38;0.88;;;;;;;9.01;56.79;98765.72;6222922;23;20091;-85
2022/11/13 04:04:43;;;;;;;15.32;1.10;;;;;;;9.01;56.98;98796.50;6245282;23;20023;-85
2022/11/13 04:07:29;;;;;;;8.45;0.70;;;;;;;8.61;55.28;98731.09;6253216;23;20047;-88
2022/11/13 04:10:14;;;;;;;8.20;1.10;;;;;;;8.84;54.56;98780.88;6248200;23;20066;-84
2022/11/13 04:12:58;;;;;;;5.68;0.93;;;;;;;8.63;56.47;98747.91;6244571;23;20054;-85
2022/11/13 04:15:43;;;;;;;2.88;0.77;;;;;;;8.69;56.21;98759.47;6246341;23;20087;-84
2022/11/13 04:18:27;;;;;;;0.85;0.80;;;;;;;8.58;54.99;98785.41;6245371;23;20016;-91
2022/11/13 04:21:12;;;;;;;1.45;0.85;;;;;;;8.30;56.16;98735.69;6244123;23;20074;-91
2022/11/13 04:23:56;;;;;;;3.03;0.82;;;;;;;8.55;55.96;98770.47;6246083;23;20020;-92
2022/11/13 04:26:41;;;;;;;2.67;0.93;;;;;;;8.38;56.39;98760.28;6223837;23;20070;-83
2022/11/13 04:29:25;;;;;;;1.02;0.65;;;;;;;8.33;56.25;98771.28;6246962;23;20047;-90
2022/11/13 04:32:10;;;;;;;3.85;0.98;;;;;;;8.59;55.53;98817.78;6244316;23;20414;-85
2022/11/13 04:34:54;;;;;;;1.20;0.60;;;;;;;8.34;55.16;98718.41;6247621;23;20020;-88
2022/11/13 04:37:38;;;;;;;2.80;0.82;;;;;;;8.57;54.69;98803.63;6246540;23;20020;-86
2022/11/13 04:40:23;;;;;;;2.60;0.98;;;;;;;8.61;54.17;98804.66;6247676;23;20020;-91
2022/11/13 04:43:08;;;;;;;2.55;0.80;;;;;;;8.74;54.08;98808.41;6245812;23;20024;-87
2022/11/13 04:45:53;;;;;;;1.05;0.70;;;;;;;8.69;54.11;98803.88;6246705;23;20149;-92
2022/11/13 04:48:37;;;;;;;2.92;1.00;;;;;;;8.54;54.20;98777.03;6245102;23;20020;-87
2022/11/13 04:51:22;;;;;;;2.30;0.82;;;;;;;8.69;54.93;98801.16;6222943;23;20361;-87
2022/11/13 04:54:06;;;;;;;9.82;1.13;;;;;;;8.51;54.15;98796.75;6244271;23;20016;-85
2022/11/13 04:56:52;;;;;;;5.97;0.95;;;;;;;8.18;55.17;98753.41;6222719;23;20023;-87
2022/11/13 04:59:36;;;;;;;1.48;0.90;;;;;;;8.77;55.67;98812.41;6244520;23;20047;-93
2022/11/13 05:02:21;;;;;;;3.50;1.23;;;;;;;8.58;54.76;98790.84;6222888;23;20020;-86
2022/11/13 05:05:06;;;;;;;3.40;1.20;;;;;;;8.68;54.98;98812.38;6245670;23;20047;-87
2022/11/13 05:07:51;;;;;;;4.50;2.22;;;;;;;8.77;55.00;98847.81;6243835;23;20016;-87
2022/11/13 05:10:36;;;;;;;3.70;1.20;;;;;;;8.57;55.03;98795.47;6245152;23;20016;-86
2022/11/13 05:13:21;;;;;;;4.38;1.00;;;;;;;8.64;54.68;98800.47;6244721;23;20020;-87
2022/11/13 05:16:08;;;;;;;3.50;0.90;;;;;;;8.57;55.11;98800.13;6221819;23;20043;-87
2022/11/13 05:18:53;;;;;;;1.55;0.88;;;;;;;8.66;55.10;98812.66;6245045;23;20019;-86
2022/11/13 05:21:38;;;;;;;4.03;0.90;;;;;;;8.47;54.91;98774.75;6243736;23;20024;-86
2022/11/13 05:24:22;;;;;;;5.53;1.02;;;;;;;8.76;55.16;98838.06;6248231;23;20023;-84
2022/11/13 05:27:07;;;;;;;1.98;0.80;;;;;;;8.75;55.37;98833.72;6225252;23;20107;-87
2022/11/13 05:29:51;;;;;;;2.05;0.70;;;;;;;8.86;54.50;98863.13;6242786;23;20527;-84
2022/11/13 05:32:36;;;;;;;6.32;1.38;;;;;;;8.84;55.22;98837.28;6243256;23;20355;-86
2022/11/13 05:35:21;;;;;;;7.15;1.15;;;;;;;8.96;55.56;98856.59;6244507;23;20023;-86
2022/11/13 05:38:05;;;;;;;7.78;1.30;;;;;;;8.84;56.82;98845.47;6243636;23;20099;-90
2022/11/13 05:40:50;;;;;;;7.20;1.08;;;;;;;8.65;57.70;98840.25;6222988;23;20119;-85
2022/11/13 05:43:36;;;;;;;2.30;1.00;;;;;;;8.86;58.92;98871.28;6245987;23;20019;-90
2022/11/13 05:46:23;;;;;;;2.30;1.00;;;;;;;8.55;59.64;98854.13;6245127;23;20028;-90
2022/11/13 05:49:10;;;;;;;1.77;1.00;;;;;;;8.42;59.12;98834.00;6222176;23;20102;-88
2022/11/13 05:51:54;;;;;;;1.10;0.88;;;;;;;8.60;59.35;98859.44;6222340;23;20043;-91
2022/11/13 05:54:39;;;;;;;4.45;1.50;;;;;;;8.44;58.43;98820.88;6244947;23;20020;-87
2022/11/13 05:57:24;;;;;;;5.05;1.65;;;;;;;8.79;58.70;98875.59;6242182;23;20086;-84
2022/11/13 06:00:10;;;;;;;3.80;1.50;;;;;;;8.90;58.12;98879.66;6220118;23;20076;-85
2022/11/13 06:02:55;;;;;;;10.20;3.35;;;;;;;8.80;58.28;98850.72;6241441;23;20027;-85
2022/11/13 06:05:39;;;;;;;5.00;1.35;;;;;;;8.83;59.93;98827.50;6241626;23;20482;-85
2022/11/13 06:08:24;;;;;;;5.57;1.17;;;;;;;8.98;56.20;98889.81;6241962;23;20466;-85
2022/11/13 06:11:11;;;;;;;4.65;1.13;;;;;;;8.98;57.22;98892.53;6241699;23;20077;-85
2022/11/13 06:13:57;;;;;;;6.25;1.20;;;;;;;8.92;57.55;98916.38;6242057;23;20481;-86
2022/11/13 06:16:42;;;;;;;13.98;1.67;;;;;;;8.88;59.67;98920.84;6243097;23;20027;-86
2022/11/13 06:19:26;;;;;;;11.60;1.25;;;;;;;8.72;63.56;98925.06;6220106;23;20016;-86
2022/11/13 06:22:11;;;;;;;26.90;1.65;;;;;;;8.46;62.87;98922.16;6241900;23;20020;-87
2022/11/13 06:24:55;;;;;;;1.55;0.75;;;;;;;8.59;63.01;98956.72;6243409;23;20016;-86
2022/11/13 06:27:40;;;;;;;13.25;1.20;;;;;;;8.30;61.46;98935.28;6241356;23;20066;-84
2022/11/13 06:30:24;;;;;;;7.90;1.00;;;;;;;8.27;62.41;98925.00;6220166;23;20040;-85
2022/11/13 06:33:09;;;;;;;4.25;0.90;;;;;;;8.03;63.16;98919.03;6220798;23;20024;-85
2022/11/13 06:35:53;;;;;;;0.70;0.70;;;;;;;8.16;63.32;98970.72;6242035;23;20023;-84
2022/11/13 06:38:39;;;;;;;1.52;0.77;;;;;;;8.11;63.15;98950.94;6243611;23;20027;-85
2022/11/13 06:41:26;;;;;;;5.07;0.85;;;;;;;7.83;62.12;98953.72;6250455;23;20020;-86
2022/11/13 06:44:11;;;;;;;8.38;1.35;;;;;;;7.95;62.35;98955.94;6248825;23;20524;-86
2022/11/13 06:46:55;;;;;;;9.68;1.13;;;;;;;7.98;61.11;98947.16;6221819;23;20491;-84
2022/11/13 06:49:40;;;;;;;5.00;1.10;;;;;;;8.04;61.27;98943.19;6244501;23;20020;-84
2022/11/13 06:52:25;;;;;;;12.52;1.55;;;;;;;8.08;61.13;98970.63;6244874;23;20044;-84
2022/11/13 06:55:09;;;;;;;5.53;1.25;;;;;;;8.26;62.05;98977.84;6245006;23;20016;-85
2022/11/13 06:57:54;;;;;;;26.13;1.90;;;;;;;8.21;60.25;98995.13;6244089;23;20103;-86
2022/11/13 07:00:39;;;;;;;9.10;1.10;;;;;;;7.95;59.71;98945.06;6221793;23;20023;-85
2022/11/13 07:03:25;;;;;;;4.25;1.10;;;;;;;7.90;60.10;98945.94;6221904;23;20050;-87
2022/11/13 07:06:13;;;;;;;27.58;4.10;;;;;;;8.13;58.70;98993.09;6222291;23;20016;-86
2022/11/13 07:08:57;;;;;;;29.50;2.53;;;;;;;8.08;58.92;98974.16;6243040;23;20023;-85
2022/11/13 07:11:42;;;;;;;10.70;1.20;;;;;;;8.20;58.51;99007.09;6222559;23;20016;-86
2022/11/13 07:14:26;;;;;;;4.50;1.02;;;;;;;8.00;58.94;98977.59;6245339;23;20077;-85
2022/11/13 07:17:11;;;;;;;54.72;2.30;;;;;;;8.08;56.90;98971.44;6243468;23;20510;-85
2022/11/13 07:19:55;;;;;;;14.55;1.77;;;;;;;8.11;58.25;99013.56;6243861;23;20008;-86
2022/11/13 07:22:40;;;;;;;16.70;1.15;;;;;;;7.98;57.89;98996.16;6243092;23;20027;-84
2022/11/13 07:25:25;;;;;;;0.85;0.70;;;;;;;8.24;58.30;99016.31;6241760;23;20016;-84
2022/11/13 07:28:10;;;;;;;22.95;1.83;;;;;;;8.03;57.09;98996.03;6220612;23;20016;-86
2022/11/13 07:30:58;;;;;;;12.02;1.20;;;;;;;8.13;58.32;99033.13;6243909;23;20042;-84
2022/11/13 07:33:42;;;;;;;15.55;2.00;;;;;;;8.11;57.61;99029.91;6242734;23;20027;-85
2022/11/13 07:36:27;;;;;;;30.75;3.35;;;;;;;8.00;57.74;99032.03;6244512;23;20016;-87
2022/11/13 07:39:11;;;;;;;43.35;2.85;;;;;;;8.13;58.52;99017.59;6221161;23;20095;-84
2022/11/13 07:41:56;;;;;;;18.42;1.98;;;;;;;8.00;57.80;99016.50;6245342;23;20016;-86
2022/11/13 07:44:40;;;;;;;13.20;1.70;;;;;;;8.03;55.64;99025.97;6221896;23;20026;-84
2022/11/13 07:47:25;;;;;;;14.63;1.85;;;;;;;8.19;55.05;99051.78;6221442;23;20185;-85
2022/11/13 07:50:10;;;;;;;24.65;1.50;;;;;;;8.13;55.16;99049.47;6242923;23;20020;-85
2022/11/13 07:52:59;;;;;;;30.02;2.13;;;;;;;8.20;55.56;99041.69;6221754;23;20034;-86
2022/11/13 07:55:44;;;;;;;17.90;1.45;;;;;;;7.98;55.52;99004.31;6221847;23;20016;-86
2022/11/13 07:58:29;;;;;;;24.95;1.85;;;;;;;7.82;55.06;99000.28;6221507;23;20081;-86
2022/11/13 08:01:14;;;;;;;18.10;1.67;;;;;;;8.05;54.61;99023.78;6232209;23;20016;-86
2022/11/13 08:03:58;;;;;;;2.35;1.00;;;;;;;7.94;55.58;98995.13;6217427;23;20016;-87
2022/11/13 08:06:43;;;;;;;5.40;1.10;;;;;;;8.31;54.46;99058.63;6196370;23;20024;-87
2022/11/13 08:09:29;;;;;;;4.65;1.33;;;;;;;8.26;54.26;99026.06;6217631;23;20476;-85
2022/11/13 08:12:14;;;;;;;7.15;1.08;;;;;;;8.35;55.06;99022.31;6217568;23;20034;-86
2022/11/13 08:14:59;;;;;;;11.30;1.88;;;;;;;8.46;53.93;99042.81;6195369;23;20114;-86
2022/11/13 08:17:43;;;;;;;34.85;4.00;;;;;;;8.29;54.25;99030.91;6244915;23;20055;-88
2022/11/13 08:20:29;;;;;;;3.97;1.20;;;;;;;8.41;54.09;99066.63;6244897;23;20339;-85
2022/11/13 08:23:14;;;;;;;37.03;1.98;;;;;;;8.20;54.35;99047.94;6196810;23;20464;-88
2022/11/13 08:26:03;;;;;;;11.95;1.45;;;;;;;8.21;55.61;99049.59;6218179;23;20363;-88
2022/11/13 08:28:48;;;;;;;26.30;2.15;;;;;;;8.33;54.08;99049.06;6222865;23;20036;-88
2022/11/13 08:31:33;;;;;;;18.25;2.40;;;;;;;8.29;54.22;99050.78;6244608;23;20023;-89
2022/11/13 08:34:18;;;;;;;6.82;1.02;;;;;;;8.42;54.37;99058.16;6222208;23;20454;-86
2022/11/13 08:37:02;;;;;;;7.53;1.20;;;;;;;8.59;55.66;99082.03;6244041;23;20023;-86
2022/11/13 08:39:47;;;;;;;10.18;1.75;;;;;;;8.30;54.47;99044.22;6244582;23;20040;-88
2022/11/13 08:42:31;;;;;;;62.30;4.05;;;;;;;8.35;54.14;99056.94;6222251;23;20020;-86
2022/11/13 08:45:16;;;;;;;19.73;1.75;;;;;;;8.39;54.66;99085.19;6217443;23;20012;-87
2022/11/13 08:48:02;;;;;;;15.30;1.90;;;;;;;8.32;54.94;99066.50;6217158;23;20104;-85
2022/11/13 08:50:51;;;;;;;11.68;1.73;;;;;;;8.40;54.68;99093.06;6243918;23;20016;-87
2022/11/13 08:53:36;;;;;;;25.73;1.88;;;;;;;8.37;55.31;99087.38;6221374;23;20087;-87
2022/11/13 08:56:20;;;;;;;12.75;1.15;;;;;;;8.25;55.09;99052.50;6216248;23;20102;-84
2022/11/13 08:59:09;;;;;;;6.88;1.35;;;;;;;8.45;55.23;99089.44;6221104;23;20073;-83
2022/11/13 09:01:58;;;;;;;9.35;2.90;;;;;;;8.50;55.43;99077.63;6221425;23;20078;-86
2022/11/13 09:04:43;;;;;;;9.77;1.80;;;;;;;8.36;55.01;99083.03;6221124;22;20012;-87
2022/11/13 09:07:29;;;;;;;7.85;1.10;;;;;;;8.45;56.12;99079.34;6243281;22;20051;-82
2022/11/13 09:10:15;;;;;;;11.90;1.58;;;;;;;8.62;55.25;99105.94;6242618;23;20016;-85
2022/11/13 09:13:02;;;;;;;6.82;1.15;;;;;;;8.68;55.17;99106.66;6242246;23;20457;-85
2022/11/13 09:15:47;;;;;;;10.60;1.20;;;;;;;8.72;54.47;99121.28;6247493;23;20016;-87
2022/11/13 09:18:32;;;;;;;9.35;1.50;;;;;;;8.34;55.14;99067.00;6251444;23;20016;-86
2022/11/13 09:21:17;;;;;;;5.10;1.23;;;;;;;8.40;55.22;99063.09;6244579;23;20077;-87
2022/11/13 09:24:05;;;;;;;5.65;1.25;;;;;;;8.35;55.45;99063.19;6244902;23;20027;-88
2022/11/13 09:26:49;;;;;;;12.20;1.70;;;;;;;8.23;55.34;99052.78;6246576;23;20020;-87
2022/11/13 09:29:34;;;;;;;2.08;1.00;;;;;;;8.25;55.75;99074.28;6246502;23;20070;-88
2022/11/13 09:32:19;;;;;;;3.65;1.02;;;;;;;8.12;55.67;99039.72;6223686;23;20020;-91
2022/11/13 09:35:04;;;;;;;9.23;1.17;;;;;;;8.26;56.45;99086.78;6244905;23;20020;-90
2022/11/13 09:37:55;;;;;;;8.57;1.98;;;;;;;8.39;56.02;99101.53;6244807;23;20012;-88
2022/11/13 09:41:01;;;;;;;2.95;1.05;;;;;;;8.31;55.57;99086.69;6222547;23;20020;-88
2022/11/13 09:43:48;;;;;;;11.93;1.52;;;;;;;8.66;55.62;99144.28;6244979;23;20023;-86
2022/11/13 09:47:13;;;;;;;2.03;0.98;;;;;;;8.73;55.58;99127.53;6246314;23;20050;-86
2022/11/13 09:50:07;;;;;;;2.47;1.20;;;;;;;8.64;54.59;99102.91;6224784;23;20027;-87
2022/11/13 09:52:52;;;;;;;16.15;1.70;;;;;;;8.58;54.66;99132.19;6247104;23;20016;-89
2022/11/13 09:55:47;;;;;;;13.98;0.82;;;;;;;8.52;54.40;99138.06;6245692;23;20397;-86
2022/11/13 09:58:56;;;;;;;8.48;1.25;;;;;;;8.79;55.35;99161.75;6244214;23;20049;-88
2022/11/13 10:05:45;;;;;;;6.50;1.00;;;;;;;8.73;53.47;99173.84;6246155;23;20069;-88
2022/11/13 10:09:23;;;;;;;7.90;1.00;;;;;;;8.61;52.81;99164.28;6198172;23;20115;-87
2022/11/13 10:12:54;;;;;;;4.05;0.70;;;;;;;8.53;51.91;99164.19;6226825;23;20031;-87
2022/11/13 10:15:40;;;;;;;10.27;1.00;;;;;;;8.13;53.80;99133.88;6221419;23;20110;-90
2022/11/13 10:18:32;;;;;;;1.35;0.80;;;;;;;8.13;52.97;99174.72;6220671;23;20484;-87
2022/11/13 10:21:51;;;;;;;11.02;1.02;;;;;;;8.23;56.19;99183.50;6199624;23;20012;-87
2022/11/13 10:24:40;;;;;;;5.13;1.00;;;;;;;7.85;57.73;99182.81;6122623;23;20045;-87
2022/11/13 10:27:25;;;;;;;8.98;1.88;;;;;;;7.69;59.27;99154.25;6102917;23;20014;-88
2022/11/13 10:30:15;;;;;;;2.45;0.80;;;;;;;7.86;60.00;99227.16;6123981;23;20026;-84
2022/11/13 10:33:07;;;;;;;1.08;0.80;;;;;;;7.50;61.60;99236.69;6126938;23;20018;-84
2022/11/13 10:36:12;;;;;;;1.27;0.70;;;;;;;7.30;62.27;99245.94;6107505;23;20022;-86
2022/11/13 10:39:05;;;;;;;2.97;1.15;;;;;;;7.23;62.30;99256.38;6123578;23;20018;-86
2022/11/13 10:41:51;;;;;;;1.48;0.80;;;;;;;7.19;62.26;99246.38;6099983;23;20022;-88
2022/11/13 10:44:36;;;;;;;3.13;1.00;;;;;;;7.09;60.72;99227.50;6102458;23;20021;-87
2022/11/13 10:47:26;;;;;;;14.85;1.10;;;;;;;6.97;60.21;99189.84;6101514;23;20014;-86
2022/11/13 10:50:27;;;;;;;2.35;1.13;;;;;;;7.20;58.77;99228.97;6102337;23;20122;-88
2022/11/13 10:53:17;;;;;;;4.55;1.00;;;;;;;7.32;58.72;99247.53;6122496;23;20017;-87
2022/11/13 10:56:12;;;;;;;5.90;0.88;;;;;;;6.90;57.35;99200.28;6123192;23;20021;-88
2022/11/13 10:59:12;;;;;;;18.65;1.42;;;;;;;7.02;57.26;99215.06;6116926;23;20024;-90
2022/11/13 11:02:14;;;;;;;1.60;0.90;;;;;;;7.21;58.51;99234.09;6215189;23;20019;-85
2022/11/13 11:05:01;;;;;;;3.45;0.93;;;;;;;7.36;57.57;99267.63;6216304;23;20069;-88
2022/11/13 11:07:49;;;;;;;0.77;0.60;;;;;;;7.05;58.14;99252.53;6197679;23;20399;-87
2022/11/13 11:12:14;;;;;;;1.20;0.77;;;;;;;6.90;57.61;99255.44;6197224;23;20019;-85
2022/11/13 11:13:42;;;;;;;2.65;0.90;;;;;;;7.11;57.96;99268.75;6217793;23;20024;-87
2022/11/13 11:16:27;;;;;;;3.47;0.82;;;;;;;6.87;57.47;99241.63;6196763;23;20020;-87
2022/11/13 11:19:14;;;;;;;10.45;1.40;;;;;;;6.97;56.74;99257.78;6217976;23;20016;-86
2022/11/13 11:31:08;;;;;;;4.65;1.35;;;;;;;7.39;55.51;99299.69;6244985;23;20400;-86
2022/11/13 11:34:39;;;;;;;27.58;1.85;;;;;;;7.47;56.75;99280.78;6196727;23;20069;-87
2022/11/13 11:37:32;;;;;;;6.32;1.27;;;;;;;7.44;55.94;99250.66;6201534;23;20023;-86
2022/11/13 11:40:37;;;;;;;5.80;1.73;;;;;;;7.85;55.00;99321.63;6196624;23;20339;-86
2022/11/13 11:43:46;;;;;;;7.83;1.47;;;;;;;7.60;55.13;99271.09;6196665;23;20107;-85
2022/11/13 11:46:31;;;;;;;5.25;1.10;;;;;;;7.58;55.71;99277.91;6222225;23;20020;-85
2022/11/13 11:49:17;;;;;;;8.60;1.30;;;;;;;7.87;55.11;99313.16;6244910;23;20016;-86
2022/11/13 11:52:16;;;;;;;8.77;1.10;;;;;;;7.74;55.89;99310.06;6247207;23;20623;-85
2022/11/13 11:55:18;;;;;;;6.03;1.00;;;;;;;7.94;56.37;99335.34;6251828;23;20034;-85
2022/11/13 11:58:36;;;;;;;10.57;1.13;;;;;;;7.66;55.48;99297.13;6243857;23;20047;-86
2022/11/13 12:01:54;;;;;;;8.05;1.30;;;;;;;7.98;56.03;99341.84;6196183;23;20346;-88
2022/11/13 12:04:42;;;;;;;14.40;1.35;;;;;;;7.89;55.61;99327.28;6219895;23;20047;-83
2022/11/13 12:07:40;;;;;;;6.28;1.25;;;;;;;7.84;55.98;99338.22;6221718;23;20020;-82
2022/11/13 12:10:25;;;;;;;2.47;1.13;;;;;;;7.92;55.63;99343.03;6242233;23;20531;-83
2022/11/13 12:13:22;;;;;;;11.85;1.20;;;;;;;7.67;55.32;99304.19;6215656;23;20020;-84
2022/11/13 12:16:14;;;;;;;;;;;;;;;7.85;55.01;99350.75;6219976;23;20020;-85
2022/11/13 12:19:27;;;;;;;6.82;0.82;;;;;;;7.74;55.33;99371.84;6194361;23;19919;-85
2022/11/13 12:22:42;;;;;;;8.23;1.33;;;;;;;7.64;55.32;99353.72;6219042;23;20022;-84
2022/11/13 12:25:35;;;;;;;9.50;1.77;;;;;;;7.68;55.69;99368.38;6241628;23;20013;-82
2022/11/13 12:28:34;;;;;;;14.88;1.65;;;;;;;7.60;55.44;99362.78;6193245;23;20020;-82
2022/11/13 12:31:37;;;;;;;21.77;2.40;;;;;;;7.54;56.03;99381.06;6193222;23;20507;-84
2022/11/13 12:34:33;;;;;;;6.40;1.13;;;;;;;7.53;56.55;99365.84;6241103;23;20027;-85
2022/11/13 12:37:53;;;;;;;12.82;1.30;;;;;;;7.58;55.68;99389.44;6214320;23;20034;-82
2022/11/13 12:40:41;;;;;;;9.30;1.50;;;;;;;7.49;55.90;99375.72;6193453;23;20024;-87
2022/11/13 12:43:50;;;;;;;7.32;1.20;;;;;;;7.47;57.11;99386.84;6242125;23;20028;-86
2022/11/13 12:46:40;;;;;;;6.63;1.55;;;;;;;7.39;56.37;99401.13;6219254;23;20016;-83
2022/11/13 12:49:35;;;;;;;3.47;1.17;;;;;;;7.19;55.97;99402.16;6212923;23;20016;-85
2022/11/13 12:52:23;;;;;;;7.63;1.65;;;;;;;7.09;56.44;99380.50;6217017;23;20078;-85
2022/11/13 12:55:25;;;;;;;11.25;1.42;;;;;;;7.10;57.06;99412.03;6211767;23;20173;-83
2022/11/13 12:58:24;;;;;;;15.95;1.55;;;;;;;7.08;57.97;99414.22;6238454;23;20027;-84
2022/11/13 13:01:08;;;;;;;11.07;2.20;;;;;;;7.27;58.69;99434.13;6239037;23;20107;-85
2022/11/13 13:04:17;;;;;;;27.50;3.67;;;;;;;7.04;61.69;99470.25;6216449;23;20408;-85
2022/11/13 13:07:39;;;;;;;11.60;1.20;;;;;;;6.86;65.26;99454.66;6189923;23;20103;-83
2022/11/13 13:10:55;;;;;;;8.10;1.40;;;;;;;6.72;64.85;99458.03;6190915;23;20023;-85
2022/11/13 13:14:04;;;;;;;19.98;2.45;;;;;;;6.57;64.96;99471.72;6227529;23;20468;-83
2022/11/13 13:16:48;;;;;;;16.50;1.92;;;;;;;6.56;64.78;99465.47;6210163;23;20016;-83
2022/11/13 13:19:34;;;;;;;12.15;1.67;;;;;;;6.32;63.28;99423.81;6236572;23;20012;-83
2022/11/13 13:22:29;;;;;;;4.55;1.40;;;;;;;6.39;64.49;99426.22;6188894;23;20024;-85
2022/11/13 13:25:32;;;;;;;3.88;1.85;;;;;;;6.42;63.32;99407.44;6189729;23;20016;-85
2022/11/13 13:28:22;;;;;;;14.50;3.42;;;;;;;6.25;62.13;99394.28;6189512;23;20838;-85
2022/11/13 13:31:11;;;;;;;4.28;1.50;;;;;;;6.76;62.93;99466.44;6188383;23;20047;-83
2022/11/13 13:34:23;;;;;;;50.63;4.60;;;;;;;6.78;60.36;99465.03;6213948;23;20020;-84
2022/11/13 13:37:32;;;;;;;15.25;1.65;;;;;;;6.49;59.55;99456.00;6235903;23;20494;-84
2022/11/13 13:40:44;;;;;;;5.22;1.63;;;;;;;6.72;61.40;99476.22;6208086;23;20019;-84
2022/11/13 13:43:49;;;;;;;6.57;1.67;;;;;;;6.77;60.04;99487.06;6235914;23;20346;-86
2022/11/13 13:46:34;;;;;;;1.13;0.90;;;;;;;6.75;60.22;99470.22;6234998;23;20016;-83